Time;durP1;ratioP1;P1;durP2;ratioP2;P2;SDS_P1;SDS_P2;PMS_P1;PMS_P2;Temp;Humidity;BMP_temperature;BMP_pressure;BME280_temperature;BME280_humidity;BME280_pressure;Samples;Min_cycle;Max_cycle;Signal;HPM_P1;HPM_P2
2024/05/08 00:00:35;;;;;;;2.83;1.20;;;15.10;1.00;;;;;;5188350;27;20588;-93
2024/05/08 00:03:08;;;;;;;6.50;1.40;;;15.10;1.00;;;;;;5163446;27;20502;-93
2024/05/08 00:05:39;;;;;;;7.05;1.63;;;15.10;1.00;;;;;;5162868;27;20508;-93
2024/05/08 00:08:11;;;;;;;4.25;1.75;;;15.10;1.00;;;;;;5161716;27;20064;-93
2024/05/08 00:10:39;;;;;;;4.93;1.60;;;15.10;1.00;;;;;;5161393;27;20064;-92
2024/05/08 00:13:07;;;;;;;6.78;1.40;;;15.00;1.00;;;;;;5161606;27;20061;-92
2024/05/08 00:15:34;;;;;;;2.42;1.45;;;15.00;1.00;;;;;;5161380;27;20063;-92
2024/05/08 00:18:03;;;;;;;4.45;1.40;;;15.00;1.00;;;;;;5182803;27;20069;-94
2024/05/08 00:20:31;;;;;;;4.47;1.40;;;15.00;1.00;;;;;;5155428;27;20057;-93
2024/05/08 00:23:10;;;;;;;4.43;1.50;;;15.00;1.00;;;;;;5157694;27;20062;-93
2024/05/08 00:25:38;;;;;;;4.72;1.38;;;14.90;1.00;;;;;;5155103;27;20091;-93
2024/05/08 00:28:09;;;;;;;7.25;1.35;;;14.90;1.00;;;;;;5155463;27;20060;-93
2024/05/08 00:30:37;;;;;;;5.47;1.52;;;14.90;1.00;;;;;;5155793;27;20444;-93
2024/05/08 00:33:08;;;;;;;6.72;1.27;;;14.80;1.00;;;;;;5154447;27;20061;-93
2024/05/08 00:35:38;;;;;;;2.88;1.35;;;14.80;1.00;;;;;;5155770;27;20065;-93
2024/05/08 00:38:08;;;;;;;4.63;1.35;;;14.90;1.00;;;;;;5154729;27;20078;-92
2024/05/08 00:40:35;;;;;;;3.85;1.40;;;14.90;1.00;;;;;;5154128;27;20056;-93
2024/05/08 00:43:08;;;;;;;6.47;1.25;;;14.90;1.00;;;;;;5154429;27;20060;-93
2024/05/08 00:45:36;;;;;;;3.28;1.48;;;14.90;1.00;;;;;;5155735;27;20094;-93
2024/05/08 00:48:06;;;;;;;3.30;1.27;;;14.90;1.00;;;;;;5128631;27;20083;-92
2024/05/08 00:50:35;;;;;;;5.80;1.60;;;14.90;1.00;;;;;;5155779;27;20068;-92
2024/05/08 00:53:06;;;;;;;6.35;1.30;;;14.90;1.00;;;;;;5129211;27;20076;-94
2024/05/08 00:55:46;;;;;;;3.05;1.13;;;14.90;1.00;;;;;;5154674;27;20057;-93
2024/05/08 00:58:14;;;;;;;4.63;1.42;;;14.90;1.00;;;;;;5154489;27;20083;-93
2024/05/08 01:00:41;;;;;;;3.92;1.52;;;14.90;1.00;;;;;;5154143;27;20412;-93
2024/05/08 01:03:10;;;;;;;5.13;1.23;;;15.00;1.00;;;;;;5154682;27;20060;-92
2024/05/08 01:05:40;;;;;;;3.05;1.33;;;15.00;1.00;;;;;;5182031;27;20091;-93
2024/05/08 01:08:10;;;;;;;4.15;1.27;;;14.90;1.00;;;;;;5154840;27;20381;-93
2024/05/08 01:10:38;;;;;;;4.00;1.75;;;15.00;1.00;;;;;;5155795;27;20061;-93
2024/05/08 01:13:06;;;;;;;3.53;1.30;;;14.90;1.00;;;;;;5155203;27;20061;-93
2024/05/08 01:15:34;;;;;;;4.68;1.45;;;14.90;1.00;;;;;;5154875;27;20120;-93
2024/05/08 01:18:04;;;;;;;3.17;1.40;;;14.90;1.00;;;;;;5155846;27;20061;-93
2024/05/08 01:20:37;;;;;;;5.57;1.38;;;15.00;1.00;;;;;;5154700;27;20061;-93
2024/05/08 01:23:07;;;;;;;3.33;1.20;;;14.90;1.00;;;;;;5155172;27;20083;-93
2024/05/08 01:25:38;;;;;;;5.47;1.50;;;14.90;1.00;;;;;;5155394;27;20091;-93
2024/05/08 01:28:05;;;;;;;8.50;1.98;;;14.80;1.00;;;;;;5128600;27;20118;-93
2024/05/08 01:30:37;;;;;;;7.13;1.58;;;14.80;1.00;;;;;;5154795;27;20060;-93
2024/05/08 01:33:05;;;;;;;;;;;14.80;1.00;;;;;;5155315;27;20093;-92
2024/05/08 01:35:37;;;;;;;7.13;1.38;;;14.80;1.00;;;;;;5181672;27;19993;-92
2024/05/08 01:38:05;;;;;;;2.38;1.17;;;14.70;1.00;;;;;;5187403;27;20103;-92
2024/05/08 01:40:33;;;;;;;4.15;1.60;;;14.70;1.00;;;;;;5186820;27;20059;-93
2024/05/08 01:43:07;;;;;;;3.75;1.42;;;14.60;1.00;;;;;;5186567;27;20059;-93
2024/05/08 01:45:37;;;;;;;3.30;1.23;;;14.60;1.00;;;;;;5187925;27;20531;-92
2024/05/08 01:48:05;;;;;;;2.42;1.10;;;14.50;1.00;;;;;;5186526;27;20110;-93
2024/05/08 01:50:35;;;;;;;4.07;1.10;;;14.50;1.00;;;;;;5160286;27;20092;-92
2024/05/08 01:53:11;;;;;;;5.22;1.50;;;14.50;1.00;;;;;;5185640;27;20079;-93
2024/05/08 01:55:40;;;;;;;5.15;1.52;;;14.50;1.00;;;;;;5187765;27;20093;-93
2024/05/08 01:58:08;;;;;;;6.00;1.50;;;14.50;1.00;;;;;;5186898;27;20078;-93
2024/05/08 02:00:36;;;;;;;4.07;1.60;;;14.50;1.00;;;;;;5186685;27;20060;-92
2024/05/08 02:03:06;;;;;;;6.05;2.00;;;14.50;1.00;;;;;;5161303;27;20087;-93
2024/05/08 02:05:39;;;;;;;4.55;1.50;;;14.50;1.00;;;;;;5187854;27;20063;-92
2024/05/08 02:08:07;;;;;;;2.50;1.48;;;14.50;1.00;;;;;;5159191;27;20078;-92
2024/05/08 02:10:37;;;;;;;3.83;1.77;;;14.50;1.00;;;;;;5186515;27;20057;-93
2024/05/08 02:13:07;;;;;;;4.03;1.50;;;14.50;1.00;;;;;;5162680;27;20083;-93
2024/05/08 02:15:37;;;;;;;4.53;1.70;;;14.50;1.00;;;;;;5188550;27;20060;-92
2024/05/08 02:18:04;;;;;;;3.13;1.65;;;14.50;1.00;;;;;;5189685;27;20060;-93
2024/05/08 02:20:32;;;;;;;5.38;1.48;;;14.50;1.00;;;;;;5161895;27;20079;-93
2024/05/08 02:23:07;;;;;;;2.38;1.50;;;14.50;1.00;;;;;;5188082;27;20059;-92
2024/05/08 02:25:37;;;;;;;3.23;1.47;;;14.50;1.00;;;;;;5189406;27;20057;-92
2024/05/08 02:28:07;;;;;;;9.15;2.00;;;14.50;1.00;;;;;;5188311;27;20057;-93
2024/05/08 02:30:36;;;;;;;5.10;1.88;;;14.50;1.00;;;;;;5161657;27;20083;-93
2024/05/08 02:33:12;;;;;;;2.67;1.50;;;14.50;1.00;;;;;;5215910;27;20150;-93
2024/05/08 02:35:41;;;;;;;2.50;1.20;;;14.50;1.00;;;;;;5188449;27;20095;-92
2024/05/08 02:38:08;;;;;;;6.25;1.52;;;14.50;4.50;;;;;;5162107;27;20078;-92
2024/05/08 02:40:41;;;;;;;2.97;1.10;;;14.40;13.30;;;;;;5163187;27;20146;-92
2024/05/08 02:43:11;;;;;;;5.18;1.42;;;14.40;16.60;;;;;;5189622;27;20056;-93
2024/05/08 02:45:38;;;;;;;4.57;1.35;;;14.40;16.30;;;;;;5162585;27;20072;-92
2024/05/08 02:48:06;;;;;;;4.30;1.38;;;14.30;18.70;;;;;;5161484;27;20096;-93
2024/05/08 02:50:36;;;;;;;4.45;1.15;;;14.40;22.70;;;;;;5188790;27;20576;-93
2024/05/08 02:53:10;;;;;;;3.53;1.45;;;14.40;23.30;;;;;;5189894;27;20082;-93
2024/05/08 02:55:42;;;;;;;3.72;1.50;;;14.40;20.40;;;;;;5189185;27;20462;-92
2024/05/08 02:58:10;;;;;;;3.75;1.63;;;14.40;21.40;;;;;;5188384;27;20061;-93
2024/05/08 03:00:38;;;;;;;7.03;1.88;;;14.40;26.80;;;;;;5188354;27;20501;-93
2024/05/08 03:03:08;;;;;;;7.00;2.00;;;14.40;22.20;;;;;;5186843;27;20060;-92
2024/05/08 03:05:36;;;;;;;6.45;2.05;;;14.40;15.40;;;;;;5164769;27;20060;-93
2024/05/08 03:08:05;;;;;;;3.53;1.60;;;14.50;14.00;;;;;;5164031;27;20193;-93
2024/05/08 03:10:33;;;;;;;3.60;1.38;;;14.40;13.80;;;;;;5164517;27;20448;-93
2024/05/08 03:13:03;;;;;;;3.30;1.20;;;14.40;24.20;;;;;;5191231;27;20382;-93
2024/05/08 03:15:31;;;;;;;4.28;1.60;;;14.40;28.90;;;;;;5190373;27;20092;-93
2024/05/08 03:18:00;;;;;;;1.75;1.10;;;14.40;28.20;;;;;;5191074;27;20069;-93
2024/05/08 03:20:28;;;;;;;4.30;1.27;;;14.40;28.70;;;;;;5164336;27;20160;-92
2024/05/08 03:23:16;;;;;;;5.28;1.50;;;14.40;26.50;;;;;;5096542;28;20061;-93
2024/05/08 03:25:43;;;;;;;4.78;1.55;;;14.40;28.20;;;;;;5119700;27;20085;-92
2024/05/08 03:28:11;;;;;;;7.72;2.08;;;14.40;25.60;;;;;;5119428;27;20070;-93
2024/05/08 03:30:40;;;;;;;3.97;1.38;;;14.30;25.80;;;;;;5120637;28;20092;-93
2024/05/08 03:33:07;;;;;;;2.75;1.65;;;14.40;30.10;;;;;;5120241;27;20065;-93
2024/05/08 03:35:40;;;;;;;3.97;1.73;;;14.30;27.20;;;;;;5119949;27;20616;-93
2024/05/08 03:38:07;;;;;;;3.33;1.60;;;14.30;35.80;;;;;;5118943;27;20085;-93
2024/05/08 03:40:36;;;;;;;4.97;1.63;;;14.30;38.10;;;;;;5108387;27;20063;-93
2024/05/08 03:43:13;;;;;;;4.40;1.80;;;14.30;40.30;;;;;;5166051;27;20051;-92
2024/05/08 03:45:45;;;;;;;6.55;1.83;;;14.40;38.80;;;;;;5191968;27;20512;-93
2024/05/08 03:48:15;;;;;;;4.65;2.10;;;14.40;38.80;;;;;;5192693;27;20401;-92
2024/05/08 03:50:44;;;;;;;3.08;1.33;;;14.30;33.00;;;;;;5190680;27;20516;-93
2024/05/08 03:53:18;;;;;;;8.15;2.30;;;14.40;33.60;;;;;;5191591;27;20059;-93
2024/05/08 03:55:47;;;;;;;7.43;2.00;;;14.40;34.80;;;;;;5189139;27;20064;-92
2024/05/08 03:58:14;;;;;;;5.97;2.03;;;14.40;33.40;;;;;;5161631;27;20061;-92
2024/05/08 04:00:41;;;;;;;6.80;1.60;;;14.40;28.20;;;;;;5189090;27;20078;-93
2024/05/08 04:03:11;;;;;;;4.20;1.38;;;14.40;29.30;;;;;;5190200;27;20056;-92
2024/05/08 04:05:45;;;;;;;4.13;1.40;;;14.40;34.30;;;;;;5188524;27;20057;-92
2024/05/08 04:08:12;;;;;;;3.05;1.70;;;14.40;40.40;;;;;;5222747;21;20139;-92
2024/05/08 04:10:40;;;;;;;3.15;1.50;;;14.40;42.00;;;;;;5194581;27;20118;-92
2024/05/08 04:13:08;;;;;;;3.65;1.42;;;14.30;45.50;;;;;;5194439;27;20059;-92
2024/05/08 04:15:39;;;;;;;6.90;1.58;;;14.30;57.70;;;;;;5193615;27;20059;-92
2024/05/08 04:18:11;;;;;;;4.55;1.42;;;14.30;66.20;;;;;;5194609;27;20051;-93
2024/05/08 04:20:41;;;;;;;;;;;14.30;68.20;;;;;;5194003;27;20075;-92
2024/05/08 04:23:08;;;;;;;3.90;1.60;;;14.30;67.70;;;;;;5194529;27;19987;-92
2024/05/08 04:25:37;;;;;;;6.32;1.40;;;14.30;68.00;;;;;;5221462;27;20067;-93
2024/05/08 04:28:06;;;;;;;4.90;1.70;;;14.40;62.90;;;;;;5222403;27;20090;-93
2024/05/08 04:30:34;;;;;;;7.93;1.98;;;14.30;57.20;;;;;;5194177;27;20090;-92
2024/05/08 04:33:08;;;;;;;5.22;1.75;;;14.40;51.90;;;;;;5222905;27;20048;-92
2024/05/08 04:35:40;;;;;;;4.85;1.80;;;14.30;53.10;;;;;;5196249;27;20056;-92
2024/05/08 04:38:11;;;;;;;2.75;1.85;;;14.30;54.40;;;;;;5195476;27;20132;-92
2024/05/08 04:40:39;;;;;;;3.75;2.15;;;14.20;56.80;;;;;;5194360;27;20067;-92
2024/05/08 04:43:10;;;;;;;4.82;2.03;;;14.30;61.10;;;;;;5196559;27;20059;-92
2024/05/08 04:45:37;;;;;;;5.43;2.05;;;14.30;64.70;;;;;;5194929;27;20055;-92
2024/05/08 04:48:06;;;;;;;6.20;2.10;;;14.30;63.10;;;;;;5196209;27;20071;-92
2024/05/08 04:50:36;;;;;;;6.05;2.28;;;14.30;59.50;;;;;;5194978;27;20060;-92
2024/05/08 04:53:08;;;;;;;;;;;14.40;57.00;;;;;;5195758;27;20147;-92
2024/05/08 04:55:36;;;;;;;5.00;2.25;;;14.40;51.30;;;;;;5223859;27;20003;-92
2024/05/08 04:58:07;;;;;;;3.08;2.03;;;14.40;30.00;;;;;;5197010;27;20087;-92
2024/05/08 05:00:34;;;;;;;6.35;1.98;;;14.50;22.90;;;;;;5195253;27;20060;-92
2024/05/08 05:03:17;;;;;;;4.18;1.90;;;14.50;15.60;;;;;;5196087;27;20058;-92
2024/05/08 05:05:46;;;;;;;4.53;2.00;;;14.50;8.60;;;;;;5223040;27;20097;-92
2024/05/08 05:08:18;;;;;;;7.50;2.28;;;14.60;2.60;;;;;;5195041;27;20149;-93
2024/05/08 05:10:47;;;;;;;7.50;2.50;;;14.60;1.00;;;;;;5221955;27;20067;-92
2024/05/08 05:13:14;;;;;;;6.18;2.13;;;14.70;1.00;;;;;;5190672;22;20087;-93
2024/05/08 05:15:41;;;;;;;5.90;2.65;;;14.70;1.00;;;;;;5185897;27;20083;-93
2024/05/08 05:18:09;;;;;;;7.10;2.50;;;14.70;1.00;;;;;;5183586;27;20069;-93
2024/05/08 05:20:37;;;;;;;9.10;3.05;;;14.70;1.00;;;;;;5157129;27;20064;-93
2024/05/08 05:23:13;;;;;;;;;;;14.70;1.00;;;;;;5131708;27;20083;-92
2024/05/08 05:25:40;;;;;;;9.43;2.78;;;14.70;1.00;;;;;;5157637;27;20029;-91
2024/05/08 05:28:11;;;;;;;12.50;2.38;;;14.70;1.00;;;;;;5130852;27;20080;-93
2024/05/08 05:33:41;;;;;;;5.72;2.35;;;14.70;1.00;;;;;;5157077;27;20093;-93
2024/05/08 05:36:08;;;;;;;3.47;2.25;;;14.70;4.20;;;;;;5129985;27;20120;-93
2024/05/08 05:38:37;;;;;;;5.25;2.47;;;14.70;2.70;;;;;;5156360;27;20060;-92
2024/05/08 05:41:10;;;;;;;3.83;2.13;;;14.70;8.60;;;;;;5131425;27;20087;-90
2024/05/08 05:46:36;;;;;;;3.78;1.80;;;14.80;15.00;;;;;;5156874;27;20000;-92
2024/05/08 05:49:04;;;;;;;9.77;2.22;;;14.90;20.70;;;;;;5131514;27;20061;-93
2024/05/08 05:51:31;;;;;;;13.05;2.85;;;14.90;20.60;;;;;;5131114;27;20072;-92
2024/05/08 05:53:58;;;;;;;5.55;2.70;;;15.00;17.70;;;;;;5130366;27;20061;-93
2024/05/08 05:56:27;;;;;;;6.05;2.35;;;15.00;20.40;;;;;;5129757;27;20083;-92
2024/05/08 05:58:57;;;;;;;8.32;2.40;;;15.10;18.60;;;;;;5130570;27;20116;-92
2024/05/08 06:01:24;;;;;;;7.03;2.55;;;15.30;7.50;;;;;;5130682;27;20069;-92
2024/05/08 06:04:01;;;;;;;3.80;2.13;;;15.30;1.00;;;;;;5156227;27;20079;-92
2024/05/08 06:06:28;;;;;;;7.20;2.08;;;15.30;1.00;;;;;;5156551;27;20069;-92
2024/05/08 06:08:57;;;;;;;8.43;2.35;;;15.40;1.00;;;;;;5127862;27;20057;-93
2024/05/08 06:11:24;;;;;;;4.75;2.33;;;15.40;1.00;;;;;;5128996;27;20086;-93
2024/05/08 06:13:55;;;;;;;3.50;1.83;;;15.50;1.00;;;;;;5129188;27;20497;-96
2024/05/08 06:16:22;;;;;;;5.07;2.33;;;15.60;1.00;;;;;;5131072;27;20079;-94
2024/05/08 06:18:49;;;;;;;7.10;2.72;;;15.60;1.00;;;;;;5130246;27;20125;-94
2024/05/08 06:21:19;;;;;;;7.55;2.35;;;15.70;1.00;;;;;;5129899;27;20079;-94
2024/05/08 06:23:50;;;;;;;5.50;2.70;;;15.80;1.00;;;;;;5183528;27;20061;-92
2024/05/08 06:26:20;;;;;;;6.28;2.50;;;15.80;1.00;;;;;;5130591;27;20067;-91
2024/05/08 06:28:48;;;;;;;5.57;2.63;;;15.90;1.00;;;;;;5129515;27;20064;-94
2024/05/08 06:31:15;;;;;;;4.63;2.58;;;15.90;1.00;;;;;;5156158;27;20105;-93
2024/05/08 06:33:42;;;;;;;6.57;2.38;;;15.90;1.00;;;;;;5155925;27;20402;-94
2024/05/08 06:36:10;;;;;;;4.15;2.42;;;16.00;1.00;;;;;;5153919;27;20080;-93
2024/05/08 06:38:37;;;;;;;5.55;2.55;;;16.00;1.00;;;;;;5154890;27;20144;-93
2024/05/08 06:41:05;;;;;;;4.38;2.42;;;16.10;1.00;;;;;;5128567;27;20065;-93
2024/05/08 06:43:32;;;;;;;7.13;3.00;;;16.20;1.00;;;;;;5168099;22;20080;-94
2024/05/08 06:46:00;;;;;;;11.98;3.28;;;16.30;1.00;;;;;;5184461;27;20495;-93
2024/05/08 06:48:27;;;;;;;4.97;3.28;;;16.40;1.00;;;;;;5182387;27;20081;-92
2024/05/08 06:50:57;;;;;;;7.68;3.50;;;16.40;1.00;;;;;;5183726;27;20068;-94
2024/05/08 06:53:24;;;;;;;8.88;3.97;;;16.50;1.00;;;;;;5129871;27;20087;-93
2024/05/08 06:55:56;;;;;;;7.18;3.97;;;16.70;1.00;;;;;;5156402;27;20103;-94
2024/05/08 06:58:23;;;;;;;10.25;4.40;;;16.70;1.00;;;;;;5155512;27;20057;-92
2024/05/08 07:00:59;;;;;;;7.43;3.92;;;16.80;1.00;;;;;;5153792;27;20072;-92
2024/05/08 07:03:46;;;;;;;9.75;4.75;;;16.80;1.00;;;;;;5162544;27;20148;-93
2024/05/08 07:06:18;;;;;;;11.70;4.40;;;16.90;99.90;;;;;;5162346;27;20092;-93
2024/05/08 07:08:45;;;;;;;11.77;4.03;;;17.00;99.90;;;;;;5184279;27;20048;-94
2024/05/08 07:11:17;;;;;;;7.47;3.53;;;17.00;99.90;;;;;;5158278;27;20139;-92
2024/05/08 07:13:44;;;;;;;5.90;4.07;;;17.00;99.90;;;;;;5152595;27;20617;-93
2024/05/08 07:16:15;;;;;;;6.55;3.90;;;17.10;99.90;;;;;;5153834;27;20442;-93
2024/05/08 07:18:42;;;;;;;9.52;4.50;;;17.10;99.90;;;;;;5179242;27;20068;-93
2024/05/08 07:21:09;;;;;;;9.68;5.03;;;17.20;99.90;;;;;;5167868;27;20065;-92
2024/05/08 07:23:39;;;;;;;9.18;5.00;;;17.20;99.90;;;;;;5127954;27;20498;-94
2024/05/08 07:26:14;;;;;;;8.18;5.07;;;17.30;99.90;;;;;;5168836;27;20068;-94
2024/05/08 07:28:42;;;;;;;12.80;6.78;;;17.30;99.90;;;;;;5153042;27;20057;-94
2024/05/08 07:31:09;;;;;;;9.40;6.82;;;17.40;99.90;;;;;;5125514;27;20064;-93
2024/05/08 07:33:36;;;;;;;10.35;6.72;;;17.50;99.90;;;;;;5146216;27;20064;-94
2024/05/08 07:36:04;;;;;;;16.25;7.95;;;17.60;99.90;;;;;;5152337;27;20081;-93
2024/05/08 07:38:33;;;;;;;9.95;7.50;;;17.70;99.90;;;;;;5152527;27;20061;-94
2024/05/08 07:41:00;;;;;;;13.20;8.77;;;17.80;99.90;;;;;;5152276;27;20152;-94
2024/05/08 07:43:28;;;;;;;11.95;8.32;;;17.90;99.90;;;;;;5151894;27;20060;-94
2024/05/08 07:45:55;;;;;;;10.57;9.43;;;18.00;99.90;;;;;;5151410;27;20130;-94
2024/05/08 07:48:22;;;;;;;12.05;9.27;;;18.20;99.90;;;;;;5151083;27;20182;-94
2024/05/08 07:50:51;;;;;;;18.38;9.00;;;18.30;99.90;;;;;;5152208;27;20064;-94
2024/05/08 07:53:18;;;;;;;12.57;9.30;;;18.40;99.90;;;;;;5155909;27;20068;-94
2024/05/08 07:55:46;;;;;;;12.85;8.48;;;18.50;99.90;;;;;;5128440;27;20082;-94
2024/05/08 07:58:13;;;;;;;14.98;10.48;;;18.60;99.90;;;;;;5128769;27;20095;-94
2024/05/08 08:00:40;;;;;;;13.07;10.60;;;18.70;99.90;;;;;;5129161;27;20556;-94
2024/05/08 08:03:10;;;;;;;14.30;10.23;;;18.80;99.90;;;;;;5183115;27;20068;-93
2024/05/08 08:05:37;;;;;;;13.75;12.02;;;18.90;99.90;;;;;;5155608;27;20082;-94
2024/05/08 08:08:04;;;;;;;14.60;11.40;;;19.00;99.90;;;;;;5153570;27;20144;-93
2024/05/08 08:10:32;;;;;;;15.13;12.02;;;18.90;99.90;;;;;;5128824;27;20143;-93
2024/05/08 08:13:07;;;;;;;24.50;13.38;;;18.80;99.90;;;;;;5155066;27;20060;-93
2024/05/08 08:15:40;;;;;;;17.47;12.67;;;18.70;99.90;;;;;;5154311;27;20121;-94
2024/05/08 08:18:16;;;;;;;15.02;11.80;;;18.60;99.90;;;;;;5133134;27;20126;-94
2024/05/08 08:20:43;;;;;;;14.65;11.52;;;18.70;99.90;;;;;;5158710;27;20072;-96
2024/05/08 08:23:17;;;;;;;15.25;12.27;;;18.80;99.90;;;;;;5159415;27;20091;-95
2024/05/08 08:25:45;;;;;;;18.08;10.93;;;18.90;99.90;;;;;;5153304;27;20090;-94
2024/05/08 08:28:32;;;;;;;16.52;11.52;;;18.90;99.90;;;;;;5179927;27;20159;-95
2024/05/08 08:31:49;;;;;;;15.32;12.48;;;18.90;99.90;;;;;;5173707;27;20080;-94
2024/05/08 08:34:22;;;;;;;16.27;12.75;;;18.90;99.90;;;;;;5184479;27;20113;-95
2024/05/08 08:36:52;;;;;;;13.87;12.07;;;18.80;99.90;;;;;;5132858;27;20100;-93
2024/05/08 08:39:19;;;;;;;14.15;12.32;;;19.20;99.90;;;;;;5129340;27;20094;-93
2024/05/08 08:41:53;;;;;;;13.05;11.18;;;19.40;99.90;;;;;;5131173;27;20089;-91
2024/05/08 08:44:27;;;;;;;15.38;12.32;;;19.50;99.90;;;;;;5182058;27;20549;-91
2024/05/08 08:46:59;;;;;;;17.48;12.70;;;19.50;91.80;;;;;;5186106;27;20061;-92
2024/05/08 08:49:28;;;;;;;16.02;12.15;;;19.40;99.40;;;;;;5126700;27;20082;-91
2024/05/08 08:51:57;;;;;;;12.32;10.60;;;19.50;99.90;;;;;;5128245;27;20105;-93
2024/05/08 08:54:25;;;;;;;16.90;10.63;;;19.60;93.60;;;;;;5127077;27;20092;-92
2024/05/08 08:56:53;;;;;;;17.23;11.23;;;19.70;23.90;;;;;;5153183;27;20083;-92
2024/05/08 08:59:22;;;;;;;14.50;10.57;;;19.90;9.00;;;;;;5127644;27;20125;-92
2024/05/08 09:01:51;;;;;;;12.35;10.00;;;19.70;13.80;;;;;;5181675;27;20068;-93
2024/05/08 09:07:40;;;;;;;17.33;9.63;;;19.80;43.70;;;;;;5147217;27;20065;-93
2024/05/08 09:10:11;;;;;;;12.05;9.23;;;19.90;30.60;;;;;;5122237;27;20080;-89
2024/05/08 09:12:58;;;;;;;10.23;9.10;;;19.80;1.00;;;;;;5114249;28;20400;-88
2024/05/08 09:15:27;;;;;;;17.55;13.02;;;19.70;8.60;;;;;;5087722;28;20061;-88
2024/05/08 09:17:54;;;;;;;18.42;14.90;;;19.50;99.90;;;;;;5113266;28;20514;-87
2024/05/08 09:20:22;;;;;;;20.67;15.20;;;19.40;99.90;;;;;;5087786;28;20057;-87
2024/05/08 09:22:59;;;;;;;22.35;16.15;;;19.30;99.90;;;;;;5114325;28;20441;-87
2024/05/08 09:25:26;;;;;;;24.17;16.60;;;19.00;99.90;;;;;;5113740;28;20345;-87
2024/05/08 09:27:55;;;;;;;20.20;17.25;;;19.00;99.90;;;;;;5114233;28;20150;-88
2024/05/08 09:30:23;;;;;;;20.58;17.20;;;18.90;99.90;;;;;;5113671;28;20092;-88
2024/05/08 09:33:03;;;;;;;20.45;16.52;;;18.80;99.90;;;;;;5088141;28;20057;-87
2024/05/08 09:35:35;;;;;;;21.88;16.95;;;19.10;99.90;;;;;;5114607;28;20141;-88
2024/05/08 09:38:03;;;;;;;21.23;15.07;;;19.40;99.90;;;;;;5114535;28;20534;-88
2024/05/08 09:40:32;;;;;;;16.77;14.05;;;19.70;99.90;;;;;;5115502;28;20100;-88
2024/05/08 09:43:10;;;;;;;15.43;12.73;;;20.00;99.90;;;;;;5089559;28;20072;-88
2024/05/08 09:45:37;;;;;;;16.77;12.15;;;20.40;50.90;;;;;;5087588;28;20519;-88
2024/05/08 09:48:07;;;;;;;13.45;11.88;;;20.70;1.00;;;;;;5115570;28;20065;-87
2024/05/08 09:50:38;;;;;;;15.03;11.67;;;21.10;1.00;;;;;;5115389;28;20094;-87
2024/05/08 09:53:07;;;;;;;13.20;10.93;;;21.50;1.00;;;;;;5087882;28;20060;-87
2024/05/08 09:55:39;;;;;;;17.75;11.18;;;21.60;1.00;;;;;;5114020;28;20065;-88
2024/05/08 09:58:08;;;;;;;;;;;21.70;1.00;;;;;;5088595;28;20145;-88
2024/05/08 10:00:36;;;;;;;13.07;10.30;;;21.40;1.00;;;;;;5113805;28;20345;-88
2024/05/08 10:03:09;;;;;;;15.55;11.73;;;21.40;1.00;;;;;;5088185;28;20061;-89
2024/05/08 10:05:39;;;;;;;13.73;10.80;;;21.40;1.00;;;;;;5125566;27;20372;-88
2024/05/08 10:08:10;;;;;;;14.07;11.57;;;21.30;1.00;;;;;;5145744;27;20056;-91
2024/05/08 10:10:48;;;;;;;13.38;10.93;;;21.20;1.00;;;;;;5145960;27;20082;-88
2024/05/08 10:13:19;;;;;;;12.73;10.98;;;21.20;1.00;;;;;;5118263;27;20063;-87
2024/05/08 10:15:54;;;;;;;12.40;10.73;;;21.40;1.00;;;;;;5145497;27;20061;-88
2024/05/08 10:18:37;;;;;;;10.60;9.27;;;21.30;1.00;;;;;;5145705;27;20784;-87
2024/05/08 10:21:12;;;;;;;13.55;8.80;;;21.20;1.00;;;;;;5145529;27;20065;-88
2024/05/08 10:23:59;;;;;;;9.93;8.88;;;21.00;1.00;;;;;;5119325;27;20508;-87
2024/05/08 10:26:38;;;;;;;11.20;9.50;;;20.70;1.00;;;;;;5118774;27;20143;-87
2024/05/08 10:29:05;;;;;;;11.38;9.35;;;20.60;1.00;;;;;;5115562;28;20418;-88
2024/05/08 10:31:35;;;;;;;13.95;9.95;;;20.60;1.00;;;;;;5113738;28;20472;-88
2024/05/08 10:34:02;;;;;;;10.40;9.30;;;20.60;1.00;;;;;;5115196;28;20076;-88
2024/05/08 10:36:30;;;;;;;12.82;9.68;;;20.50;1.00;;;;;;5113621;28;20069;-89
2024/05/08 10:38:59;;;;;;;11.43;9.32;;;20.40;1.00;;;;;;5144936;27;20542;-87
2024/05/08 10:41:27;;;;;;;14.30;9.65;;;20.30;1.00;;;;;;5145443;27;20160;-87
2024/05/08 10:43:56;;;;;;;12.35;9.45;;;20.20;1.00;;;;;;5145504;27;20089;-88
2024/05/08 10:46:25;;;;;;;14.18;9.88;;;20.10;1.00;;;;;;5145728;27;20073;-87
2024/05/08 10:48:52;;;;;;;12.07;9.70;;;20.20;1.00;;;;;;5145423;27;20511;-87
2024/05/08 10:51:24;;;;;;;13.43;9.05;;;20.50;1.00;;;;;;5118449;27;20072;-87
2024/05/08 10:53:53;;;;;;;12.50;10.57;;;20.90;1.00;;;;;;5143453;27;20069;-87
2024/05/08 10:56:21;;;;;;;15.48;11.02;;;21.10;1.00;;;;;;5113133;27;20057;-87
2024/05/08 10:58:49;;;;;;;16.13;12.00;;;20.90;1.00;;;;;;5141753;27;20068;-88
2024/05/08 11:01:16;;;;;;;14.95;12.57;;;20.60;1.00;;;;;;5145479;27;20481;-88
2024/05/08 11:03:48;;;;;;;13.52;12.23;;;20.50;1.00;;;;;;5146506;27;20164;-88
2024/05/08 11:06:27;;;;;;;16.55;13.18;;;20.20;1.00;;;;;;5146491;27;20510;-88
2024/05/08 11:08:57;;;;;;;12.85;11.55;;;19.90;1.00;;;;;;5145548;27;20065;-88
2024/05/08 11:11:34;;;;;;;14.60;11.70;;;19.70;1.00;;;;;;5146773;27;20531;-87
2024/05/08 11:14:04;;;;;;;18.55;12.43;;;19.50;7.70;;;;;;5144932;27;20221;-90
2024/05/08 11:16:31;;;;;;;14.60;12.27;;;19.40;32.10;;;;;;5118025;27;20065;-88
2024/05/08 11:18:59;;;;;;;16.38;12.75;;;19.30;96.80;;;;;;5146923;27;20092;-88
2024/05/08 11:21:26;;;;;;;15.85;12.88;;;19.30;92.60;;;;;;5147199;27;20121;-87
2024/05/08 11:23:53;;;;;;;15.57;12.27;;;19.40;99.90;;;;;;5144463;27;20095;-87
2024/05/08 11:26:20;;;;;;;13.98;11.75;;;19.50;99.90;;;;;;5121081;27;20069;-86
2024/05/08 11:28:48;;;;;;;13.30;11.73;;;19.70;43.90;;;;;;5147914;27;20522;-87
2024/05/08 11:31:15;;;;;;;13.43;11.38;;;20.00;9.40;;;;;;5149140;27;20099;-88
2024/05/08 11:33:42;;;;;;;12.38;10.13;;;20.10;1.00;;;;;;5149499;27;20152;-87
2024/05/08 11:36:14;;;;;;;15.30;13.43;;;20.20;1.00;;;;;;5148015;27;20091;-92
2024/05/08 11:38:42;;;;;;;19.25;13.15;;;20.20;1.00;;;;;;5117299;27;20528;-89
2024/05/08 11:41:09;;;;;;;15.32;12.23;;;20.20;1.00;;;;;;5058010;28;20065;-89
2024/05/08 11:43:37;;;;;;;14.00;11.85;;;20.20;1.00;;;;;;5110311;28;20508;-89
2024/05/08 11:46:04;;;;;;;12.63;11.23;;;20.20;1.00;;;;;;5084095;28;20542;-89
2024/05/08 11:48:31;;;;;;;15.90;12.18;;;20.20;1.00;;;;;;5084396;28;20164;-88
2024/05/08 11:50:58;;;;;;;13.88;11.85;;;20.10;1.00;;;;;;5110872;28;20512;-88
2024/05/08 11:53:26;;;;;;;14.65;11.60;;;20.10;1.00;;;;;;5109820;28;20065;-88
2024/05/08 11:55:53;;;;;;;15.70;12.90;;;20.00;1.00;;;;;;5084184;28;20151;-92
2024/05/08 11:58:20;;;;;;;15.35;12.98;;;19.90;25.80;;;;;;5111490;28;20520;-91
2024/05/08 12:00:48;;;;;;;17.33;13.05;;;19.80;66.60;;;;;;5058472;28;20085;-90
2024/05/08 12:03:15;;;;;;;18.63;13.40;;;19.70;98.60;;;;;;5110672;28;20059;-88
2024/05/08 12:05:43;;;;;;;17.15;12.82;;;19.70;99.90;;;;;;5084420;28;20426;-90
2024/05/08 12:08:10;;;;;;;15.48;12.15;;;19.70;99.90;;;;;;5118648;27;20154;-90
2024/05/08 12:10:37;;;;;;;13.65;12.10;;;19.70;99.90;;;;;;5147952;27;20163;-90
2024/05/08 12:13:06;;;;;;;14.65;12.15;;;19.80;99.90;;;;;;5147852;27;20061;-93
2024/05/08 12:15:35;;;;;;;14.15;11.20;;;19.90;67.90;;;;;;5147665;27;20079;-92
2024/05/08 12:18:04;;;;;;;14.57;11.43;;;20.30;99.90;;;;;;5147948;27;20061;-90
2024/05/08 12:20:38;;;;;;;11.35;10.15;;;21.00;29.50;;;;;;5147685;27;20169;-91
2024/05/08 12:23:06;;;;;;;10.80;9.68;;;21.70;1.00;;;;;;5147911;27;20056;-90
2024/05/08 12:25:34;;;;;;;12.93;9.30;;;22.20;1.00;;;;;;5121600;27;20092;-92
2024/05/08 12:28:01;;;;;;;11.80;10.23;;;22.70;1.00;;;;;;5147768;27;20541;-90
2024/05/08 12:30:29;;;;;;;12.13;10.18;;;22.90;1.00;;;;;;5147674;27;20486;-90
2024/05/08 12:33:08;;;;;;;15.25;10.90;;;22.60;1.00;;;;;;5147902;27;20080;-89
2024/05/08 12:35:37;;;;;;;13.40;10.43;;;22.50;1.00;;;;;;5147328;27;20400;-91
2024/05/08 12:38:05;;;;;;;10.57;9.48;;;22.30;1.00;;;;;;5146878;27;20460;-91
2024/05/08 12:40:32;;;;;;;11.38;10.07;;;22.30;1.00;;;;;;5148034;27;20499;-92
2024/05/08 12:43:12;;;;;;;12.65;11.35;;;22.20;1.00;;;;;;5147956;27;20078;-90
2024/05/08 12:45:40;;;;;;;11.50;10.32;;;21.80;1.00;;;;;;5147798;27;20076;-91
2024/05/08 12:48:07;;;;;;;12.98;10.82;;;21.70;1.00;;;;;;5147964;27;20065;-92
2024/05/08 12:50:36;;;;;;;14.52;11.50;;;21.50;1.00;;;;;;5147290;27;20057;-91
2024/05/08 12:53:07;;;;;;;13.18;11.50;;;21.40;1.00;;;;;;5121218;27;20097;-91
2024/05/08 12:55:36;;;;;;;13.65;11.48;;;21.20;1.00;;;;;;5147823;27;20426;-90
2024/05/08 12:58:04;;;;;;;13.27;11.85;;;21.20;1.00;;;;;;5147861;27;20507;-90
2024/05/08 13:00:33;;;;;;;14.75;12.38;;;21.10;1.00;;;;;;5147201;27;20132;-90
2024/05/08 13:03:06;;;;;;;13.73;11.88;;;21.00;1.00;;;;;;5121872;27;20077;-91
2024/05/08 13:05:38;;;;;;;14.70;13.07;;;20.80;1.00;;;;;;5147246;27;20563;-90
2024/05/08 13:08:07;;;;;;;16.95;11.93;;;20.70;1.00;;;;;;5147711;27;20064;-91